createdAt,value
2019-03-27T00:00:14.391Z,20.32
2019-03-27T00:02:45.145Z,15.10
2019-03-27T00:05:14.303Z,13.80
2019-03-27T00:07:43.439Z,14.73
2019-03-27T00:10:12.583Z,14.45
2019-03-27T00:12:41.718Z,16.45
2019-03-27T00:15:13.194Z,15.70
2019-03-27T00:17:41.721Z,12.88
2019-03-27T00:20:11.017Z,14.10
2019-03-27T00:22:40.179Z,12.95
2019-03-27T00:25:09.333Z,12.20
2019-03-27T00:27:38.475Z,13.45
2019-03-27T00:30:08.265Z,15.70
2019-03-27T00:32:37.406Z,15.25
2019-03-27T00:35:06.826Z,20.20
2019-03-27T00:37:35.964Z,15.83
2019-03-27T00:40:08.207Z,19.75
2019-03-27T00:42:37.354Z,15.30
2019-03-27T00:45:09.718Z,16.97
2019-03-27T00:47:38.869Z,22.05
2019-03-27T00:50:08.370Z,18.45
2019-03-27T00:52:37.506Z,18.23
2019-03-27T00:55:07.190Z,20.17
2019-03-27T00:57:37.401Z,15.68
2019-03-27T01:00:12.528Z,13.85
2019-03-27T01:02:41.658Z,15.45
2019-03-27T01:05:10.805Z,19.90
2019-03-27T01:07:39.944Z,20.55
2019-03-27T01:10:09.099Z,17.37
2019-03-27T01:12:38.237Z,16.27
2019-03-27T01:15:07.392Z,18.00
2019-03-27T01:17:36.526Z,14.07
2019-03-27T01:20:06.456Z,15.75
2019-03-27T01:22:35.958Z,15.45
2019-03-27T01:25:06.238Z,14.65
2019-03-27T01:27:36.416Z,18.57
2019-03-27T01:30:05.711Z,15.60
2019-03-27T01:32:35.822Z,21.15
2019-03-27T01:35:04.976Z,21.30
2019-03-27T01:37:34.117Z,19.50
2019-03-27T01:40:03.271Z,18.12
2019-03-27T01:42:32.486Z,18.23
2019-03-27T01:45:01.647Z,20.17
2019-03-27T01:47:30.842Z,19.62
2019-03-27T01:49:59.986Z,16.25
2019-03-27T01:52:29.136Z,18.73
2019-03-27T01:54:58.278Z,18.30
2019-03-27T01:57:27.426Z,17.62
2019-03-27T01:59:56.576Z,18.98
2019-03-27T02:02:25.727Z,18.05
2019-03-27T02:04:54.870Z,21.95
2019-03-27T02:07:24.028Z,19.10
2019-03-27T02:09:53.162Z,18.35
2019-03-27T02:12:22.325Z,23.80
2019-03-27T02:14:51.450Z,21.10
2019-03-27T02:17:20.615Z,20.27
2019-03-27T02:19:49.752Z,21.75
2019-03-27T02:22:18.975Z,23.05
2019-03-27T02:24:48.117Z,18.40
2019-03-27T02:27:17.270Z,21.23
2019-03-27T02:29:46.421Z,22.55
2019-03-27T02:32:20.406Z,21.93
2019-03-27T02:34:47.370Z,17.90
2019-03-27T02:37:16.550Z,29.70
2019-03-27T02:39:45.742Z,22.60
2019-03-27T02:42:14.894Z,22.37
2019-03-27T02:44:44.050Z,22.42
2019-03-27T02:47:13.255Z,20.40
2019-03-27T02:49:42.400Z,22.15
2019-03-27T02:52:12.519Z,25.15
2019-03-27T02:54:41.656Z,21.40
2019-03-27T02:57:11.784Z,23.10
2019-03-27T02:59:40.931Z,22.32
2019-03-27T03:02:10.088Z,23.85
2019-03-27T03:04:39.299Z,21.95
2019-03-27T03:07:08.461Z,21.30
2019-03-27T03:09:37.607Z,25.27
2019-03-27T03:12:06.769Z,23.10
2019-03-27T03:14:35.973Z,25.82
2019-03-27T03:17:05.147Z,24.23
2019-03-27T03:19:34.279Z,25.95
2019-03-27T03:22:03.439Z,24.32
2019-03-27T03:24:32.581Z,23.87
2019-03-27T03:27:01.806Z,22.15
2019-03-27T03:29:30.949Z,26.57
2019-03-27T03:32:00.196Z,28.95
2019-03-27T03:34:29.355Z,25.72
2019-03-27T03:36:59.748Z,27.50
2019-03-27T03:39:28.896Z,22.13
2019-03-27T03:41:58.112Z,26.65
2019-03-27T03:44:27.330Z,28.92
2019-03-27T03:47:00.185Z,28.20
2019-03-27T03:49:27.425Z,27.20
2019-03-27T03:51:56.581Z,24.77
2019-03-27T03:54:25.710Z,24.72
2019-03-27T03:56:56.098Z,24.43
2019-03-27T03:59:25.235Z,26.07
2019-03-27T04:01:55.068Z,28.20
2019-03-27T04:04:24.215Z,24.27
2019-03-27T04:06:53.367Z,21.25
2019-03-27T04:09:22.505Z,26.10
2019-03-27T04:11:51.670Z,27.20
2019-03-27T04:14:20.881Z,27.52
2019-03-27T04:16:51.003Z,26.05
2019-03-27T04:19:20.141Z,26.90
2019-03-27T04:21:49.308Z,28.50
2019-03-27T04:24:18.451Z,27.27
2019-03-27T04:26:47.603Z,25.00
2019-03-27T04:29:16.740Z,25.40
2019-03-27T04:31:45.901Z,21.68
2019-03-27T04:34:15.042Z,25.80
2019-03-27T04:36:44.200Z,26.55
2019-03-27T04:39:13.334Z,23.92
2019-03-27T04:41:42.495Z,26.35
2019-03-27T04:44:11.642Z,27.80
2019-03-27T04:46:40.787Z,24.72
2019-03-27T04:49:09.923Z,25.62
2019-03-27T04:51:39.079Z,21.52
2019-03-27T04:54:08.217Z,26.27
2019-03-27T04:56:37.370Z,25.08
2019-03-27T04:59:06.852Z,25.50
2019-03-27T05:01:36.003Z,23.52
2019-03-27T05:04:06.214Z,28.12
2019-03-27T05:06:35.369Z,26.68
2019-03-27T05:09:05.245Z,23.80
2019-03-27T05:11:34.399Z,28.45
2019-03-27T05:14:03.533Z,26.82
2019-03-27T05:16:32.691Z,24.07
2019-03-27T05:19:01.829Z,24.47
2019-03-27T05:21:30.986Z,25.75
2019-03-27T05:24:00.299Z,29.27
2019-03-27T05:26:29.451Z,26.77
2019-03-27T05:28:58.596Z,23.60
2019-03-27T05:31:27.758Z,23.15
2019-03-27T05:33:56.906Z,24.98
2019-03-27T05:36:26.048Z,25.48
2019-03-27T05:38:55.197Z,25.57
2019-03-27T05:41:24.342Z,22.40
2019-03-27T05:43:54.467Z,31.62
2019-03-27T05:46:26.482Z,27.75
2019-03-27T05:48:54.449Z,25.90
2019-03-27T05:51:23.594Z,23.15
2019-03-27T05:53:52.750Z,26.97
2019-03-27T05:56:21.899Z,23.87
2019-03-27T05:58:51.049Z,28.77
2019-03-27T06:01:20.197Z,27.32
2019-03-27T06:03:49.351Z,23.38
2019-03-27T06:06:18.519Z,29.02
2019-03-27T06:08:47.672Z,28.10
2019-03-27T06:11:16.806Z,29.65
2019-03-27T06:13:45.982Z,26.60
2019-03-27T06:16:15.119Z,29.27
2019-03-27T06:18:44.286Z,30.90
2019-03-27T06:21:13.418Z,31.23
2019-03-27T06:23:42.578Z,28.32
2019-03-27T06:26:11.714Z,26.57
2019-03-27T06:28:40.873Z,24.90
2019-03-27T06:31:10.008Z,27.75
2019-03-27T06:33:39.294Z,31.48
2019-03-27T06:36:08.435Z,32.00
2019-03-27T06:38:37.593Z,29.82
2019-03-27T06:41:06.736Z,27.02
2019-03-27T06:43:35.886Z,31.75
2019-03-27T06:46:05.026Z,25.65
2019-03-27T06:48:34.179Z,36.70
2019-03-27T06:51:03.472Z,31.60
2019-03-27T06:53:32.621Z,38.55
2019-03-27T06:56:01.764Z,26.60
2019-03-27T06:58:30.983Z,30.15
2019-03-27T07:01:00.118Z,29.98
2019-03-27T07:03:29.273Z,31.00
2019-03-27T07:05:58.410Z,30.25
2019-03-27T07:08:27.570Z,30.65
2019-03-27T07:10:56.718Z,26.73
2019-03-27T07:13:25.937Z,36.00
2019-03-27T07:15:55.080Z,30.90
2019-03-27T07:18:24.243Z,33.42
2019-03-27T07:20:53.444Z,29.87
2019-03-27T07:23:22.611Z,34.23
2019-03-27T07:25:51.762Z,32.48
2019-03-27T07:28:20.925Z,33.10
2019-03-27T07:30:50.066Z,35.30
2019-03-27T07:33:20.303Z,31.25
2019-03-27T07:35:49.443Z,33.73
2019-03-27T07:38:18.597Z,34.70
2019-03-27T07:40:47.753Z,33.42
2019-03-27T07:43:16.910Z,37.33
2019-03-27T07:45:46.058Z,38.67
2019-03-27T07:48:15.220Z,34.27
2019-03-27T07:50:44.371Z,35.30
2019-03-27T07:53:13.521Z,31.82
2019-03-27T07:55:42.666Z,35.88
2019-03-27T07:58:11.832Z,39.45
2019-03-27T08:00:40.970Z,32.08
2019-03-27T08:03:10.134Z,37.42
2019-03-27T08:05:39.278Z,33.05
2019-03-27T08:08:08.433Z,31.97
2019-03-27T08:10:37.586Z,31.77
2019-03-27T08:13:06.751Z,23.42
2019-03-27T08:15:35.970Z,33.23
2019-03-27T08:18:05.126Z,26.15
2019-03-27T08:20:34.271Z,26.82
2019-03-27T08:23:04.339Z,25.02
2019-03-27T08:25:33.908Z,20.77
2019-03-27T08:28:03.185Z,25.45
2019-03-27T08:30:32.321Z,23.22
2019-03-27T08:33:01.486Z,23.52
2019-03-27T08:35:30.633Z,19.52
2019-03-27T08:37:59.790Z,19.37
2019-03-27T08:40:28.938Z,27.37
2019-03-27T08:42:58.094Z,18.37
2019-03-27T08:45:27.234Z,21.48
2019-03-27T08:47:56.402Z,18.32
2019-03-27T08:50:25.543Z,18.07
2019-03-27T08:52:54.718Z,20.92
2019-03-27T08:55:23.868Z,19.82
2019-03-27T08:57:53.019Z,14.43
2019-03-27T09:00:42.194Z,19.77
2019-03-27T09:03:12.371Z,18.75
2019-03-27T09:05:41.582Z,19.92
2019-03-27T09:08:10.719Z,20.37
2019-03-27T09:10:39.874Z,16.85
2019-03-27T09:13:09.014Z,18.35
2019-03-27T09:15:38.182Z,17.50
2019-03-27T09:18:07.335Z,15.35
2019-03-27T09:20:36.491Z,18.50
2019-03-27T09:23:05.691Z,15.78
2019-03-27T09:25:34.857Z,16.32
2019-03-27T09:28:04.073Z,14.60
2019-03-27T09:30:34.186Z,17.23
2019-03-27T09:33:03.323Z,16.73
2019-03-27T09:35:33.004Z,17.42
2019-03-27T09:38:02.251Z,17.02
2019-03-27T09:40:31.401Z,16.15
2019-03-27T09:43:00.551Z,15.35
2019-03-27T09:45:29.706Z,18.10
2019-03-27T09:47:58.847Z,17.20
2019-03-27T09:50:28.002Z,13.85
2019-03-27T09:52:57.143Z,11.48
2019-03-27T09:55:26.299Z,11.65
2019-03-27T09:57:56.439Z,8.78
2019-03-27T10:00:43.826Z,10.38
2019-03-27T10:03:12.972Z,13.18
2019-03-27T10:05:42.124Z,11.60
2019-03-27T10:08:11.262Z,11.78
2019-03-27T10:10:40.418Z,10.03
2019-03-27T10:13:09.557Z,7.92
2019-03-27T10:15:38.706Z,7.85
2019-03-27T10:18:07.839Z,8.40
2019-03-27T10:20:36.986Z,8.95
2019-03-27T10:23:06.132Z,8.75
2019-03-27T10:25:35.302Z,7.30
2019-03-27T10:28:04.451Z,4.80
2019-03-27T10:30:33.666Z,6.22
2019-03-27T10:33:03.730Z,2.90
2019-03-27T10:35:32.890Z,5.55
2019-03-27T10:38:03.021Z,7.90
2019-03-27T10:40:32.159Z,4.72
2019-03-27T10:43:01.303Z,5.90
2019-03-27T10:45:30.456Z,4.80
2019-03-27T10:47:59.586Z,6.03
2019-03-27T10:50:28.735Z,5.42
2019-03-27T10:52:57.870Z,6.65
2019-03-27T10:55:27.029Z,8.60
2019-03-27T10:57:59.035Z,5.90
2019-03-27T11:00:28.628Z,5.65
2019-03-27T11:02:57.830Z,9.83
2019-03-27T11:05:26.978Z,4.95
2019-03-27T11:07:56.114Z,5.17
2019-03-27T11:10:25.364Z,4.10
2019-03-27T11:12:54.499Z,4.55
2019-03-27T11:15:23.650Z,6.08
2019-03-27T11:17:53.188Z,5.47
2019-03-27T11:20:30.907Z,5.17
2019-03-27T11:22:53.337Z,5.70
2019-03-27T11:25:23.003Z,5.60
2019-03-27T11:27:52.191Z,7.85
2019-03-27T11:30:24.606Z,5.40
2019-03-27T11:32:53.750Z,6.55
2019-03-27T11:35:22.897Z,7.15
2019-03-27T11:37:52.046Z,6.65
2019-03-27T11:40:21.190Z,5.40
2019-03-27T11:42:50.325Z,5.97
2019-03-27T11:45:19.479Z,4.85
2019-03-27T11:47:48.619Z,5.08
2019-03-27T11:50:17.766Z,8.13
2019-03-27T11:52:46.913Z,6.25
2019-03-27T11:55:16.062Z,6.65
2019-03-27T11:57:45.202Z,6.67
2019-03-27T12:00:14.369Z,10.95
2019-03-27T12:02:43.517Z,7.85
2019-03-27T12:05:12.739Z,7.10
2019-03-27T12:07:41.889Z,5.00
2019-03-27T12:10:11.111Z,6.33
2019-03-27T12:12:40.253Z,5.80
2019-03-27T12:15:10.431Z,6.47
2019-03-27T12:17:39.589Z,13.08
2019-03-27T12:20:08.744Z,12.88
2019-03-27T12:22:37.962Z,8.40
2019-03-27T12:25:07.098Z,5.92
2019-03-27T12:27:36.255Z,4.97
2019-03-27T12:30:07.130Z,7.90
2019-03-27T12:32:36.292Z,5.37
2019-03-27T12:35:05.703Z,11.20
2019-03-27T12:37:34.860Z,7.42
2019-03-27T12:40:11.340Z,6.78
2019-03-27T12:42:35.666Z,6.65
2019-03-27T12:45:06.745Z,5.25
2019-03-27T12:47:35.970Z,7.47
2019-03-27T12:50:07.063Z,5.83
2019-03-27T12:52:36.266Z,7.50
2019-03-27T12:55:05.686Z,5.28
2019-03-27T12:57:34.899Z,5.10
2019-03-27T13:00:06.179Z,8.38
2019-03-27T13:02:35.327Z,6.00
2019-03-27T13:05:06.622Z,9.03
2019-03-27T13:07:49.088Z,6.10
2019-03-27T13:10:06.696Z,6.05
2019-03-27T13:12:35.908Z,5.35
2019-03-27T13:15:06.674Z,8.25
2019-03-27T13:17:35.837Z,6.20
2019-03-27T13:20:06.679Z,6.33
2019-03-27T13:22:38.302Z,5.75
2019-03-27T13:25:07.312Z,5.30
2019-03-27T13:27:36.466Z,4.95
2019-03-27T13:30:08.552Z,5.85
2019-03-27T13:32:37.841Z,5.75
2019-03-27T13:35:07.154Z,9.38
2019-03-27T13:37:36.309Z,8.48
2019-03-27T13:40:07.482Z,8.90
2019-03-27T13:42:36.648Z,7.35
2019-03-27T13:45:06.499Z,7.55
2019-03-27T13:47:35.718Z,7.80
2019-03-27T13:50:07.671Z,7.22
2019-03-27T13:52:36.818Z,7.67
2019-03-27T13:55:07.600Z,7.22
2019-03-27T13:57:36.841Z,5.80
2019-03-27T14:00:11.348Z,6.90
2019-03-27T14:05:09.010Z,6.15
2019-03-27T14:07:38.168Z,8.53
2019-03-27T14:10:07.371Z,5.40
2019-03-27T14:12:36.518Z,9.80
2019-03-27T14:15:10.983Z,8.65
2019-03-27T14:17:40.134Z,6.00
2019-03-27T14:20:09.348Z,8.13
2019-03-27T14:22:38.494Z,8.05
2019-03-27T14:25:08.268Z,15.55
2019-03-27T14:27:37.474Z,7.40
2019-03-27T14:30:08.670Z,4.85
2019-03-27T14:32:37.826Z,6.50
2019-03-27T14:35:07.113Z,8.13
2019-03-27T14:37:37.215Z,4.45
2019-03-27T14:40:07.544Z,6.60
2019-03-27T14:42:36.770Z,8.00
2019-03-27T14:45:08.147Z,9.83
2019-03-27T14:47:37.312Z,6.83
2019-03-27T14:50:09.614Z,7.17
2019-03-27T14:52:38.832Z,6.28
2019-03-27T14:55:07.974Z,10.43
2019-03-27T14:57:37.667Z,8.40
2019-03-27T15:00:09.049Z,8.70
2019-03-27T15:02:38.270Z,5.97
2019-03-27T15:05:07.806Z,6.90
2019-03-27T15:07:36.950Z,5.42
2019-03-27T15:10:08.628Z,8.85
2019-03-27T15:12:37.781Z,5.03
2019-03-27T15:15:09.255Z,7.47
2019-03-27T15:17:39.482Z,6.67
2019-03-27T15:20:08.691Z,9.08
2019-03-27T15:22:37.840Z,6.83
2019-03-27T15:25:08.229Z,9.65
2019-03-27T15:27:37.399Z,6.65
2019-03-27T15:30:12.995Z,9.68
2019-03-27T15:32:42.609Z,11.80
2019-03-27T15:35:12.815Z,10.25
2019-03-27T15:37:42.007Z,8.38
2019-03-27T15:40:11.209Z,6.62
2019-03-27T15:42:40.433Z,7.42
2019-03-27T15:45:10.571Z,7.03
2019-03-27T15:47:39.719Z,7.62
2019-03-27T15:50:09.847Z,7.33
2019-03-27T15:52:38.989Z,9.25
2019-03-27T15:55:08.139Z,10.05
2019-03-27T15:57:37.276Z,7.65
2019-03-27T16:00:08.067Z,8.75
2019-03-27T16:02:37.208Z,7.33
2019-03-27T16:05:06.447Z,8.43
2019-03-27T16:07:35.660Z,6.85
2019-03-27T16:10:07.883Z,5.53
2019-03-27T16:12:38.094Z,4.85
2019-03-27T16:15:07.611Z,5.20
2019-03-27T16:17:36.758Z,7.10
2019-03-27T16:20:07.341Z,6.75
2019-03-27T16:22:49.496Z,9.35
2019-03-27T16:25:07.782Z,6.70
2019-03-27T16:27:36.917Z,5.65
2019-03-27T16:30:06.547Z,7.08
2019-03-27T16:32:35.695Z,5.58
2019-03-27T16:35:08.878Z,6.80
2019-03-27T16:37:38.032Z,5.03
2019-03-27T16:40:07.204Z,10.05
2019-03-27T16:42:36.346Z,6.72
2019-03-27T16:45:06.530Z,9.53
2019-03-27T16:47:35.687Z,7.85
2019-03-27T16:50:06.838Z,13.65
2019-03-27T16:52:35.977Z,10.60
2019-03-27T16:55:06.825Z,8.65
2019-03-27T16:57:35.968Z,9.53
2019-03-27T17:00:07.126Z,9.75
2019-03-27T17:02:36.343Z,10.20
2019-03-27T17:05:08.727Z,13.10
2019-03-27T17:07:37.868Z,9.95
2019-03-27T17:10:07.029Z,7.47
2019-03-27T17:12:36.495Z,8.05
2019-03-27T17:15:07.190Z,7.47
2019-03-27T17:17:36.410Z,6.92
2019-03-27T17:20:08.474Z,9.75
2019-03-27T17:22:37.605Z,6.15
2019-03-27T17:25:09.487Z,7.33
2019-03-27T17:27:38.618Z,8.08
2019-03-27T17:30:10.194Z,7.78
2019-03-27T17:32:39.327Z,8.15
2019-03-27T17:35:08.523Z,6.58
2019-03-27T17:37:37.738Z,6.17
2019-03-27T17:40:07.057Z,8.83
2019-03-27T17:42:36.203Z,5.17
2019-03-27T17:45:06.876Z,5.65
2019-03-27T17:47:36.033Z,9.18
2019-03-27T17:50:05.531Z,7.75
2019-03-27T17:52:37.891Z,6.37
2019-03-27T17:55:06.857Z,10.50
2019-03-27T17:57:36.010Z,8.03
2019-03-27T18:00:08.398Z,6.50
2019-03-27T18:02:37.571Z,8.68
2019-03-27T18:05:07.181Z,10.28
2019-03-27T18:07:36.348Z,6.65
2019-03-27T18:10:06.426Z,7.92
2019-03-27T18:12:37.611Z,6.03
2019-03-27T18:15:07.023Z,5.12
2019-03-27T18:17:36.330Z,4.50
2019-03-27T18:20:05.496Z,7.60
2019-03-27T18:22:34.726Z,5.35
2019-03-27T18:25:05.299Z,7.95
2019-03-27T18:27:34.454Z,5.85
2019-03-27T18:30:06.333Z,6.95
2019-03-27T18:32:35.659Z,6.62
2019-03-27T18:35:05.830Z,6.47
2019-03-27T18:37:34.983Z,9.90
2019-03-27T18:40:05.461Z,6.15
2019-03-27T18:42:34.686Z,4.10
2019-03-27T18:45:06.018Z,7.83
2019-03-27T18:47:35.203Z,6.35
2019-03-27T18:50:06.083Z,7.17
2019-03-27T18:52:35.277Z,7.45
2019-03-27T18:55:05.622Z,4.37
2019-03-27T18:57:34.773Z,3.40
2019-03-27T19:00:08.932Z,4.85
2019-03-27T19:02:38.322Z,5.87
2019-03-27T19:05:07.625Z,6.42
2019-03-27T19:07:36.786Z,11.18
2019-03-27T19:10:06.099Z,7.80
2019-03-27T19:12:35.328Z,7.62
2019-03-27T19:15:07.373Z,3.45
2019-03-27T19:17:36.539Z,6.12
2019-03-27T19:20:07.301Z,7.65
2019-03-27T19:22:36.466Z,6.85
2019-03-27T19:25:07.056Z,8.15
2019-03-27T19:27:36.283Z,6.17
2019-03-27T19:30:06.383Z,71.62
2019-03-27T19:32:35.609Z,14.90
2019-03-27T19:35:05.890Z,9.50
2019-03-27T19:37:35.034Z,6.87
2019-03-27T19:40:04.930Z,7.75
2019-03-27T19:42:34.161Z,10.70
2019-03-27T19:45:04.211Z,7.45
2019-03-27T19:47:33.614Z,8.68
2019-03-27T19:50:05.583Z,9.73
2019-03-27T19:52:34.787Z,6.15
2019-03-27T19:55:04.742Z,6.55
2019-03-27T19:57:33.908Z,8.70
2019-03-27T20:00:04.998Z,9.95
2019-03-27T20:02:34.216Z,7.85
2019-03-27T20:05:03.926Z,7.95
2019-03-27T20:07:36.084Z,11.35
2019-03-27T20:10:06.242Z,12.33
2019-03-27T20:12:35.646Z,11.33
2019-03-27T20:15:12.512Z,9.93
2019-03-27T20:17:38.968Z,7.90
2019-03-27T20:20:08.347Z,11.48
2019-03-27T20:22:37.500Z,11.30
2019-03-27T20:25:08.931Z,7.28
2019-03-27T20:27:38.085Z,9.90
2019-03-27T20:30:11.642Z,11.90
2019-03-27T20:32:40.802Z,10.93
2019-03-27T20:35:10.019Z,10.45
2019-03-27T20:37:39.338Z,13.85
2019-03-27T20:40:08.550Z,7.37
2019-03-27T20:42:38.154Z,8.13
2019-03-27T20:45:08.030Z,14.60
2019-03-27T20:47:37.180Z,9.23
2019-03-27T20:50:07.990Z,7.90
2019-03-27T20:52:37.185Z,13.95
2019-03-27T20:55:06.439Z,8.03
2019-03-27T20:57:35.574Z,8.13
2019-03-27T21:00:07.430Z,12.15
2019-03-27T21:02:36.951Z,10.48
2019-03-27T21:05:07.074Z,13.05
2019-03-27T21:07:36.266Z,10.28
2019-03-27T21:10:08.414Z,9.75
2019-03-27T21:12:37.553Z,13.38
2019-03-27T21:15:07.405Z,7.20
2019-03-27T21:17:36.551Z,8.55
2019-03-27T21:20:11.251Z,8.80
2019-03-27T21:22:41.468Z,9.35
2019-03-27T21:25:11.772Z,9.80
2019-03-27T21:27:40.937Z,9.80
2019-03-27T21:30:10.747Z,8.45
2019-03-27T21:32:40.047Z,9.15
2019-03-27T21:35:15.747Z,14.23
2019-03-27T21:37:45.010Z,10.35
2019-03-27T21:40:14.193Z,12.60
2019-03-27T21:42:43.392Z,11.80
2019-03-27T21:45:12.577Z,9.68
2019-03-27T21:47:41.762Z,10.58
2019-03-27T21:50:10.962Z,12.37
2019-03-27T21:52:40.108Z,10.18
2019-03-27T21:55:21.903Z,12.35
2019-03-27T21:57:40.165Z,15.80
2019-03-27T22:00:10.379Z,11.65
2019-03-27T22:02:39.609Z,13.55
2019-03-27T22:05:08.771Z,11.00
2019-03-27T22:08:02.932Z,13.93
2019-03-27T22:10:32.262Z,11.35
2019-03-27T22:13:12.040Z,13.50
2019-03-27T22:15:44.184Z,10.90
2019-03-27T22:18:13.382Z,11.85
2019-03-27T22:20:42.554Z,12.40
2019-03-27T22:23:11.811Z,11.12
2019-03-27T22:25:41.067Z,10.48
2019-03-27T22:28:10.334Z,15.03
2019-03-27T22:30:39.599Z,14.70
2019-03-27T22:33:08.848Z,13.08
2019-03-27T22:35:38.055Z,10.25
2019-03-27T22:38:07.286Z,10.98
2019-03-27T22:40:36.430Z,11.80
2019-03-27T22:43:05.572Z,14.58
2019-03-27T22:45:34.728Z,14.60
2019-03-27T22:48:04.027Z,10.20
2019-03-27T22:50:33.170Z,12.93
2019-03-27T22:53:02.523Z,9.78
2019-03-27T22:55:31.728Z,12.07
2019-03-27T22:58:00.878Z,10.35
2019-03-27T23:00:40.490Z,10.18
2019-03-27T23:03:18.199Z,10.90
2019-03-27T23:05:41.051Z,9.40
2019-03-27T23:08:10.210Z,10.08
2019-03-27T23:10:39.350Z,10.13
2019-03-27T23:13:10.111Z,10.13
2019-03-27T23:15:39.306Z,8.75
2019-03-27T23:18:08.456Z,12.55
2019-03-27T23:20:37.595Z,12.25
2019-03-27T23:23:06.816Z,13.85
2019-03-27T23:25:35.973Z,11.80
2019-03-27T23:28:05.107Z,9.08
2019-03-27T23:30:34.262Z,9.80
2019-03-27T23:33:03.500Z,8.98
2019-03-27T23:35:32.779Z,11.65
2019-03-27T23:38:01.911Z,11.48
2019-03-27T23:40:31.183Z,8.90
2019-03-27T23:43:01.292Z,12.45
2019-03-27T23:45:30.483Z,12.20
2019-03-27T23:47:59.689Z,9.95
2019-03-27T23:50:28.854Z,14.03
2019-03-27T23:52:57.997Z,10.98
2019-03-27T23:55:27.159Z,14.90
2019-03-27T23:57:56.301Z,14.45
